sensor_id;sensor_type;location;lat;lon;timestamp;temperature;humidity
2729;DHT22;1372;47.956;7.830;2022-10-16T00:01:47;14.70;99.90
2729;DHT22;1372;47.956;7.830;2022-10-16T00:04:16;14.70;99.90
2729;DHT22;1372;47.956;7.830;2022-10-16T00:06:46;14.70;99.90
2729;DHT22;1372;47.956;7.830;2022-10-16T00:09:15;14.80;99.90
2729;DHT22;1372;47.956;7.830;2022-10-16T00:11:44;14.70;99.90
2729;DHT22;1372;47.956;7.830;2022-10-16T00:14:14;14.70;99.90
2729;DHT22;1372;47.956;7.830;2022-10-16T00:16:45;14.80;99.90
2729;DHT22;1372;47.956;7.830;2022-10-16T00:19:14;14.80;99.90
2729;DHT22;1372;47.956;7.830;2022-10-16T00:21:42;14.80;99.90
2729;DHT22;1372;47.956;7.830;2022-10-16T00:24:11;14.80;99.90
2729;DHT22;1372;47.956;7.830;2022-10-16T00:26:40;14.90;99.90
2729;DHT22;1372;47.956;7.830;2022-10-16T00:29:09;14.90;99.90
2729;DHT22;1372;47.956;7.830;2022-10-16T00:31:38;14.90;99.90
2729;DHT22;1372;47.956;7.830;2022-10-16T00:34:10;14.90;99.90
2729;DHT22;1372;47.956;7.830;2022-10-16T00:36:41;14.90;99.90
2729;DHT22;1372;47.956;7.830;2022-10-16T00:39:09;14.90;99.90
2729;DHT22;1372;47.956;7.830;2022-10-16T00:41:38;14.90;99.90
2729;DHT22;1372;47.956;7.830;2022-10-16T00:44:41;14.90;99.90
2729;DHT22;1372;47.956;7.830;2022-10-16T00:47:17;14.90;99.90
2729;DHT22;1372;47.956;7.830;2022-10-16T00:49:51;15.00;99.90
2729;DHT22;1372;47.956;7.830;2022-10-16T00:52:23;14.90;99.90
2729;DHT22;1372;47.956;7.830;2022-10-16T00:54:55;14.90;99.90
2729;DHT22;1372;47.956;7.830;2022-10-16T00:57:27;15.00;99.90
2729;DHT22;1372;47.956;7.830;2022-10-16T00:59:56;15.00;99.90
2729;DHT22;1372;47.956;7.830;2022-10-16T01:02:25;15.00;99.90
2729;DHT22;1372;47.956;7.830;2022-10-16T01:04:55;15.00;99.90
2729;DHT22;1372;47.956;7.830;2022-10-16T01:07:34;15.00;99.90
2729;DHT22;1372;47.956;7.830;2022-10-16T01:10:14;15.00;99.90
2729;DHT22;1372;47.956;7.830;2022-10-16T01:12:51;15.00;99.90
2729;DHT22;1372;47.956;7.830;2022-10-16T01:15:27;15.00;99.90
2729;DHT22;1372;47.956;7.830;2022-10-16T01:18:01;15.00;99.90
2729;DHT22;1372;47.956;7.830;2022-10-16T01:20:42;15.00;99.90
2729;DHT22;1372;47.956;7.830;2022-10-16T01:23:27;15.10;99.90
2729;DHT22;1372;47.956;7.830;2022-10-16T01:26:14;15.10;99.90
2729;DHT22;1372;47.956;7.830;2022-10-16T01:29:09;15.00;99.90
2729;DHT22;1372;47.956;7.830;2022-10-16T01:31:45;15.00;99.90
2729;DHT22;1372;47.956;7.830;2022-10-16T01:34:19;15.00;99.90
2729;DHT22;1372;47.956;7.830;2022-10-16T01:36:56;15.00;99.90
2729;DHT22;1372;47.956;7.830;2022-10-16T01:39:31;15.00;99.90
2729;DHT22;1372;47.956;7.830;2022-10-16T01:42:05;15.00;99.90
2729;DHT22;1372;47.956;7.830;2022-10-16T01:44:38;15.00;99.90
2729;DHT22;1372;47.956;7.830;2022-10-16T01:47:09;15.00;99.90
2729;DHT22;1372;47.956;7.830;2022-10-16T01:49:40;15.00;99.90
2729;DHT22;1372;47.956;7.830;2022-10-16T01:52:13;15.00;99.90
2729;DHT22;1372;47.956;7.830;2022-10-16T01:54:47;15.00;99.90
2729;DHT22;1372;47.956;7.830;2022-10-16T01:57:21;14.90;99.90
2729;DHT22;1372;47.956;7.830;2022-10-16T01:59:56;14.90;99.90
2729;DHT22;1372;47.956;7.830;2022-10-16T02:02:29;14.90;99.90
2729;DHT22;1372;47.956;7.830;2022-10-16T02:05:04;14.90;99.90
2729;DHT22;1372;47.956;7.830;2022-10-16T02:07:37;14.90;99.90
2729;DHT22;1372;47.956;7.830;2022-10-16T02:10:08;14.90;99.90
2729;DHT22;1372;47.956;7.830;2022-10-16T02:12:40;14.90;99.90
2729;DHT22;1372;47.956;7.830;2022-10-16T02:15:11;14.80;99.90
2729;DHT22;1372;47.956;7.830;2022-10-16T02:17:43;14.80;99.90
2729;DHT22;1372;47.956;7.830;2022-10-16T02:20:11;14.80;99.90
2729;DHT22;1372;47.956;7.830;2022-10-16T02:22:43;14.90;99.90
2729;DHT22;1372;47.956;7.830;2022-10-16T02:25:17;14.90;99.90
2729;DHT22;1372;47.956;7.830;2022-10-16T02:27:53;14.80;99.90
2729;DHT22;1372;47.956;7.830;2022-10-16T02:30:28;14.80;99.90
2729;DHT22;1372;47.956;7.830;2022-10-16T02:33:02;14.80;99.90
2729;DHT22;1372;47.956;7.830;2022-10-16T02:35:33;14.80;99.90
2729;DHT22;1372;47.956;7.830;2022-10-16T02:38:04;14.80;99.90
2729;DHT22;1372;47.956;7.830;2022-10-16T02:40:34;14.70;99.90
2729;DHT22;1372;47.956;7.830;2022-10-16T02:43:04;14.70;99.90
2729;DHT22;1372;47.956;7.830;2022-10-16T02:45:37;14.70;99.90
2729;DHT22;1372;47.956;7.830;2022-10-16T02:48:08;14.70;99.90
2729;DHT22;1372;47.956;7.830;2022-10-16T02:50:36;14.70;99.90
2729;DHT22;1372;47.956;7.830;2022-10-16T02:53:04;14.70;99.90
2729;DHT22;1372;47.956;7.830;2022-10-16T02:55:33;14.70;99.90
2729;DHT22;1372;47.956;7.830;2022-10-16T02:58:02;14.70;99.90
2729;DHT22;1372;47.956;7.830;2022-10-16T03:00:31;14.80;99.90
2729;DHT22;1372;47.956;7.830;2022-10-16T03:03:01;14.80;99.90
2729;DHT22;1372;47.956;7.830;2022-10-16T03:05:29;14.90;99.90
2729;DHT22;1372;47.956;7.830;2022-10-16T03:07:58;14.80;99.90
2729;DHT22;1372;47.956;7.830;2022-10-16T03:10:27;14.80;99.90
2729;DHT22;1372;47.956;7.830;2022-10-16T03:12:56;14.80;99.90
2729;DHT22;1372;47.956;7.830;2022-10-16T03:15:24;14.80;99.90
2729;DHT22;1372;47.956;7.830;2022-10-16T03:17:56;14.80;99.90
2729;DHT22;1372;47.956;7.830;2022-10-16T03:20:26;14.70;99.90
2729;DHT22;1372;47.956;7.830;2022-10-16T03:22:55;14.80;99.90
2729;DHT22;1372;47.956;7.830;2022-10-16T03:25:24;14.80;99.90
2729;DHT22;1372;47.956;7.830;2022-10-16T03:27:52;14.80;99.90
2729;DHT22;1372;47.956;7.830;2022-10-16T03:30:21;14.80;99.90
2729;DHT22;1372;47.956;7.830;2022-10-16T03:32:49;14.80;99.90
2729;DHT22;1372;47.956;7.830;2022-10-16T03:35:24;14.80;99.90
2729;DHT22;1372;47.956;7.830;2022-10-16T03:37:54;14.80;99.90
2729;DHT22;1372;47.956;7.830;2022-10-16T03:40:23;14.80;99.90
2729;DHT22;1372;47.956;7.830;2022-10-16T03:42:52;14.80;99.90
2729;DHT22;1372;47.956;7.830;2022-10-16T03:45:22;14.80;99.90
2729;DHT22;1372;47.956;7.830;2022-10-16T03:47:50;14.80;99.90
2729;DHT22;1372;47.956;7.830;2022-10-16T03:50:19;14.90;99.90
2729;DHT22;1372;47.956;7.830;2022-10-16T03:52:49;14.90;99.90
2729;DHT22;1372;47.956;7.830;2022-10-16T03:55:18;14.90;99.90
2729;DHT22;1372;47.956;7.830;2022-10-16T03:57:48;14.90;99.90
2729;DHT22;1372;47.956;7.830;2022-10-16T04:00:17;14.90;99.90
2729;DHT22;1372;47.956;7.830;2022-10-16T04:02:46;14.90;99.90
2729;DHT22;1372;47.956;7.830;2022-10-16T04:05:14;14.90;99.90
2729;DHT22;1372;47.956;7.830;2022-10-16T04:07:45;14.90;99.90
2729;DHT22;1372;47.956;7.830;2022-10-16T04:10:15;14.90;99.90
2729;DHT22;1372;47.956;7.830;2022-10-16T04:12:44;14.90;99.90
2729;DHT22;1372;47.956;7.830;2022-10-16T04:15:13;14.90;99.90
2729;DHT22;1372;47.956;7.830;2022-10-16T04:17:41;14.90;99.90
2729;DHT22;1372;47.956;7.830;2022-10-16T04:20:14;14.90;99.90
2729;DHT22;1372;47.956;7.830;2022-10-16T04:22:43;14.90;99.90
2729;DHT22;1372;47.956;7.830;2022-10-16T04:25:12;14.90;99.90
2729;DHT22;1372;47.956;7.830;2022-10-16T04:27:42;14.90;99.90
2729;DHT22;1372;47.956;7.830;2022-10-16T04:30:12;14.90;99.90
2729;DHT22;1372;47.956;7.830;2022-10-16T04:32:43;14.90;99.90
2729;DHT22;1372;47.956;7.830;2022-10-16T04:35:11;14.90;99.90
2729;DHT22;1372;47.956;7.830;2022-10-16T04:37:40;14.90;99.90
2729;DHT22;1372;47.956;7.830;2022-10-16T04:40:09;14.90;99.90
2729;DHT22;1372;47.956;7.830;2022-10-16T04:42:38;14.80;99.90
2729;DHT22;1372;47.956;7.830;2022-10-16T04:45:09;14.90;99.90
2729;DHT22;1372;47.956;7.830;2022-10-16T04:47:39;14.90;99.90
2729;DHT22;1372;47.956;7.830;2022-10-16T04:50:08;14.90;99.90
2729;DHT22;1372;47.956;7.830;2022-10-16T04:52:40;14.90;99.90
2729;DHT22;1372;47.956;7.830;2022-10-16T04:55:08;15.00;99.90
2729;DHT22;1372;47.956;7.830;2022-10-16T04:57:40;15.00;99.90
2729;DHT22;1372;47.956;7.830;2022-10-16T05:00:11;15.00;99.90
2729;DHT22;1372;47.956;7.830;2022-10-16T05:02:40;15.10;99.90
2729;DHT22;1372;47.956;7.830;2022-10-16T05:05:09;15.00;99.90
2729;DHT22;1372;47.956;7.830;2022-10-16T05:07:38;15.00;99.90
2729;DHT22;1372;47.956;7.830;2022-10-16T05:10:07;15.10;99.90
2729;DHT22;1372;47.956;7.830;2022-10-16T05:12:36;15.10;99.90
2729;DHT22;1372;47.956;7.830;2022-10-16T05:15:05;15.10;99.90
2729;DHT22;1372;47.956;7.830;2022-10-16T05:17:35;15.10;99.90
2729;DHT22;1372;47.956;7.830;2022-10-16T05:20:07;15.10;99.90
2729;DHT22;1372;47.956;7.830;2022-10-16T05:22:36;15.10;99.90
2729;DHT22;1372;47.956;7.830;2022-10-16T05:25:07;15.00;99.90
2729;DHT22;1372;47.956;7.830;2022-10-16T05:27:36;15.10;99.90
2729;DHT22;1372;47.956;7.830;2022-10-16T05:30:06;15.10;99.90
2729;DHT22;1372;47.956;7.830;2022-10-16T05:32:46;15.10;99.90
2729;DHT22;1372;47.956;7.830;2022-10-16T05:35:16;15.10;99.90
2729;DHT22;1372;47.956;7.830;2022-10-16T05:37:46;15.10;99.90
2729;DHT22;1372;47.956;7.830;2022-10-16T05:40:15;15.10;99.90
2729;DHT22;1372;47.956;7.830;2022-10-16T05:42:44;15.10;99.90
2729;DHT22;1372;47.956;7.830;2022-10-16T05:45:12;15.10;99.90
2729;DHT22;1372;47.956;7.830;2022-10-16T05:47:43;15.10;99.90
2729;DHT22;1372;47.956;7.830;2022-10-16T05:50:11;15.10;99.90
2729;DHT22;1372;47.956;7.830;2022-10-16T05:52:40;15.10;99.90
2729;DHT22;1372;47.956;7.830;2022-10-16T05:55:14;15.10;99.90
2729;DHT22;1372;47.956;7.830;2022-10-16T05:57:42;15.10;99.90
2729;DHT22;1372;47.956;7.830;2022-10-16T06:00:11;15.00;99.90
2729;DHT22;1372;47.956;7.830;2022-10-16T06:02:42;15.10;99.90
2729;DHT22;1372;47.956;7.830;2022-10-16T06:05:13;15.10;99.90
2729;DHT22;1372;47.956;7.830;2022-10-16T06:07:42;15.10;99.90
2729;DHT22;1372;47.956;7.830;2022-10-16T06:10:13;15.20;99.90
2729;DHT22;1372;47.956;7.830;2022-10-16T06:12:49;15.20;99.90
2729;DHT22;1372;47.956;7.830;2022-10-16T06:15:20;15.20;99.90
2729;DHT22;1372;47.956;7.830;2022-10-16T06:17:51;15.20;99.90
2729;DHT22;1372;47.956;7.830;2022-10-16T06:20:19;15.20;99.90
2729;DHT22;1372;47.956;7.830;2022-10-16T06:22:48;15.20;99.90
2729;DHT22;1372;47.956;7.830;2022-10-16T06:25:19;15.20;99.90
2729;DHT22;1372;47.956;7.830;2022-10-16T06:27:47;15.20;99.90
2729;DHT22;1372;47.956;7.830;2022-10-16T06:30:16;15.30;99.90
2729;DHT22;1372;47.956;7.830;2022-10-16T06:32:45;15.30;99.90
2729;DHT22;1372;47.956;7.830;2022-10-16T06:35:15;15.30;99.90
2729;DHT22;1372;47.956;7.830;2022-10-16T06:37:44;15.30;99.90
2729;DHT22;1372;47.956;7.830;2022-10-16T06:40:15;15.30;99.90
2729;DHT22;1372;47.956;7.830;2022-10-16T06:42:44;15.30;99.90
2729;DHT22;1372;47.956;7.830;2022-10-16T06:45:14;15.40;99.90
2729;DHT22;1372;47.956;7.830;2022-10-16T06:47:43;15.40;99.90
2729;DHT22;1372;47.956;7.830;2022-10-16T06:50:13;15.30;99.90
2729;DHT22;1372;47.956;7.830;2022-10-16T06:52:43;15.40;99.90
2729;DHT22;1372;47.956;7.830;2022-10-16T06:55:12;15.40;99.90
2729;DHT22;1372;47.956;7.830;2022-10-16T06:57:46;15.40;99.90
2729;DHT22;1372;47.956;7.830;2022-10-16T07:00:17;15.40;99.90
2729;DHT22;1372;47.956;7.830;2022-10-16T07:02:46;15.40;99.90
2729;DHT22;1372;47.956;7.830;2022-10-16T07:05:14;15.40;99.90
2729;DHT22;1372;47.956;7.830;2022-10-16T07:07:45;15.40;99.90
2729;DHT22;1372;47.956;7.830;2022-10-16T07:10:13;15.50;99.90
2729;DHT22;1372;47.956;7.830;2022-10-16T07:12:42;15.50;99.90
2729;DHT22;1372;47.956;7.830;2022-10-16T07:15:12;15.50;99.90
2729;DHT22;1372;47.956;7.830;2022-10-16T07:17:40;15.60;99.90
2729;DHT22;1372;47.956;7.830;2022-10-16T07:20:12;15.60;99.90
2729;DHT22;1372;47.956;7.830;2022-10-16T07:22:41;15.60;99.90
2729;DHT22;1372;47.956;7.830;2022-10-16T07:25:11;15.60;99.90
2729;DHT22;1372;47.956;7.830;2022-10-16T07:27:40;15.70;99.90
2729;DHT22;1372;47.956;7.830;2022-10-16T07:30:09;15.80;99.90
2729;DHT22;1372;47.956;7.830;2022-10-16T07:32:38;15.80;99.90
2729;DHT22;1372;47.956;7.830;2022-10-16T07:35:09;15.80;99.90
2729;DHT22;1372;47.956;7.830;2022-10-16T07:37:38;15.80;99.90
2729;DHT22;1372;47.956;7.830;2022-10-16T07:40:15;15.80;99.90
2729;DHT22;1372;47.956;7.830;2022-10-16T07:42:43;16.00;99.90
2729;DHT22;1372;47.956;7.830;2022-10-16T07:45:12;16.00;99.90
2729;DHT22;1372;47.956;7.830;2022-10-16T07:47:40;16.10;99.90
2729;DHT22;1372;47.956;7.830;2022-10-16T07:50:11;16.10;99.90
2729;DHT22;1372;47.956;7.830;2022-10-16T07:52:40;16.20;99.90
2729;DHT22;1372;47.956;7.830;2022-10-16T07:55:09;16.20;99.90
2729;DHT22;1372;47.956;7.830;2022-10-16T07:57:39;16.30;99.90
2729;DHT22;1372;47.956;7.830;2022-10-16T08:00:10;16.40;99.90
2729;DHT22;1372;47.956;7.830;2022-10-16T08:02:40;16.50;99.90
2729;DHT22;1372;47.956;7.830;2022-10-16T08:05:09;16.50;99.90
2729;DHT22;1372;47.956;7.830;2022-10-16T08:07:37;16.60;99.90
2729;DHT22;1372;47.956;7.830;2022-10-16T08:10:14;16.60;99.90
2729;DHT22;1372;47.956;7.830;2022-10-16T08:12:46;16.70;99.90
2729;DHT22;1372;47.956;7.830;2022-10-16T08:15:14;16.70;99.90
2729;DHT22;1372;47.956;7.830;2022-10-16T08:17:43;16.70;99.90
2729;DHT22;1372;47.956;7.830;2022-10-16T08:20:12;16.70;99.90
2729;DHT22;1372;47.956;7.830;2022-10-16T08:22:40;16.90;99.90
2729;DHT22;1372;47.956;7.830;2022-10-16T08:25:11;16.90;99.90
2729;DHT22;1372;47.956;7.830;2022-10-16T08:27:42;17.00;99.90
2729;DHT22;1372;47.956;7.830;2022-10-16T08:30:13;17.00;99.90
2729;DHT22;1372;47.956;7.830;2022-10-16T08:32:42;17.10;99.90
2729;DHT22;1372;47.956;7.830;2022-10-16T08:35:12;17.10;99.90
2729;DHT22;1372;47.956;7.830;2022-10-16T08:37:44;17.20;99.90
2729;DHT22;1372;47.956;7.830;2022-10-16T08:40:17;17.30;99.90
2729;DHT22;1372;47.956;7.830;2022-10-16T08:42:59;17.40;99.90
2729;DHT22;1372;47.956;7.830;2022-10-16T08:48:45;17.50;99.90
2729;DHT22;1372;47.956;7.830;2022-10-16T08:51:19;17.60;99.90
2729;DHT22;1372;47.956;7.830;2022-10-16T08:53:53;17.60;99.90
2729;DHT22;1372;47.956;7.830;2022-10-16T08:56:26;17.60;99.90
2729;DHT22;1372;47.956;7.830;2022-10-16T08:58:57;17.70;99.90
2729;DHT22;1372;47.956;7.830;2022-10-16T09:01:40;17.70;99.90
2729;DHT22;1372;47.956;7.830;2022-10-16T09:04:47;17.70;99.90
2729;DHT22;1372;47.956;7.830;2022-10-16T09:07:41;17.80;99.90
2729;DHT22;1372;47.956;7.830;2022-10-16T09:10:26;17.80;99.90
2729;DHT22;1372;47.956;7.830;2022-10-16T09:13:07;17.90;99.90
2729;DHT22;1372;47.956;7.830;2022-10-16T09:15:45;18.00;99.90
2729;DHT22;1372;47.956;7.830;2022-10-16T09:18:22;18.00;99.90
2729;DHT22;1372;47.956;7.830;2022-10-16T09:21:01;18.10;99.90
2729;DHT22;1372;47.956;7.830;2022-10-16T09:23:35;18.20;99.90
2729;DHT22;1372;47.956;7.830;2022-10-16T09:26:05;18.20;99.90
2729;DHT22;1372;47.956;7.830;2022-10-16T09:28:39;18.20;99.90
2729;DHT22;1372;47.956;7.830;2022-10-16T09:31:13;18.40;99.90
2729;DHT22;1372;47.956;7.830;2022-10-16T09:33:50;18.50;99.90
2729;DHT22;1372;47.956;7.830;2022-10-16T09:36:23;18.70;99.90
2729;DHT22;1372;47.956;7.830;2022-10-16T09:39:03;18.80;99.90
2729;DHT22;1372;47.956;7.830;2022-10-16T09:41:34;18.90;99.90
2729;DHT22;1372;47.956;7.830;2022-10-16T09:44:05;19.00;99.90
2729;DHT22;1372;47.956;7.830;2022-10-16T09:46:46;19.10;99.90
2729;DHT22;1372;47.956;7.830;2022-10-16T09:49:24;19.30;99.90
2729;DHT22;1372;47.956;7.830;2022-10-16T09:52:03;19.40;99.90
2729;DHT22;1372;47.956;7.830;2022-10-16T09:54:33;19.60;99.90
2729;DHT22;1372;47.956;7.830;2022-10-16T09:57:06;19.70;99.90
2729;DHT22;1372;47.956;7.830;2022-10-16T09:59:45;19.70;99.90
2729;DHT22;1372;47.956;7.830;2022-10-16T10:02:16;19.70;99.90
2729;DHT22;1372;47.956;7.830;2022-10-16T10:04:51;19.80;99.90
2729;DHT22;1372;47.956;7.830;2022-10-16T10:07:25;19.90;99.90
2729;DHT22;1372;47.956;7.830;2022-10-16T10:09:56;19.90;99.90
2729;DHT22;1372;47.956;7.830;2022-10-16T10:12:27;20.10;99.90
2729;DHT22;1372;47.956;7.830;2022-10-16T10:15:04;20.10;99.90
2729;DHT22;1372;47.956;7.830;2022-10-16T10:17:46;20.20;99.90
2729;DHT22;1372;47.956;7.830;2022-10-16T10:20:25;20.30;99.90
2729;DHT22;1372;47.956;7.830;2022-10-16T10:22:55;20.30;99.90
2729;DHT22;1372;47.956;7.830;2022-10-16T10:25:39;20.40;99.90
2729;DHT22;1372;47.956;7.830;2022-10-16T10:28:22;20.50;99.90
2729;DHT22;1372;47.956;7.830;2022-10-16T10:31:03;20.60;99.90
2729;DHT22;1372;47.956;7.830;2022-10-16T10:33:42;20.60;99.90
2729;DHT22;1372;47.956;7.830;2022-10-16T10:36:22;20.60;99.90
2729;DHT22;1372;47.956;7.830;2022-10-16T10:38:59;20.60;99.90
2729;DHT22;1372;47.956;7.830;2022-10-16T10:41:54;20.60;99.90
2729;DHT22;1372;47.956;7.830;2022-10-16T10:44:39;20.60;99.90
2729;DHT22;1372;47.956;7.830;2022-10-16T10:47:27;20.60;99.90
2729;DHT22;1372;47.956;7.830;2022-10-16T10:50:13;20.60;99.90
2729;DHT22;1372;47.956;7.830;2022-10-16T10:52:57;20.70;99.90
2729;DHT22;1372;47.956;7.830;2022-10-16T10:55:36;20.70;99.90
2729;DHT22;1372;47.956;7.830;2022-10-16T11:01:13;20.80;99.90
2729;DHT22;1372;47.956;7.830;2022-10-16T11:04:03;20.90;99.90
2729;DHT22;1372;47.956;7.830;2022-10-16T11:06:44;20.80;99.90
2729;DHT22;1372;47.956;7.830;2022-10-16T11:09:19;20.90;99.90
2729;DHT22;1372;47.956;7.830;2022-10-16T11:11:54;21.00;99.90
2729;DHT22;1372;47.956;7.830;2022-10-16T11:14:28;21.00;99.90
2729;DHT22;1372;47.956;7.830;2022-10-16T11:17:07;21.10;99.90
2729;DHT22;1372;47.956;7.830;2022-10-16T11:19:43;21.10;99.90
2729;DHT22;1372;47.956;7.830;2022-10-16T11:22:16;21.10;99.90
2729;DHT22;1372;47.956;7.830;2022-10-16T11:24:54;21.20;99.90
2729;DHT22;1372;47.956;7.830;2022-10-16T11:27:35;21.20;99.90
2729;DHT22;1372;47.956;7.830;2022-10-16T11:30:12;21.20;99.90
2729;DHT22;1372;47.956;7.830;2022-10-16T11:32:53;21.10;99.90
2729;DHT22;1372;47.956;7.830;2022-10-16T11:35:41;21.20;99.90
2729;DHT22;1372;47.956;7.830;2022-10-16T11:38:15;21.20;99.90
2729;DHT22;1372;47.956;7.830;2022-10-16T11:40:54;21.30;99.90
2729;DHT22;1372;47.956;7.830;2022-10-16T11:43:30;21.40;99.90
2729;DHT22;1372;47.956;7.830;2022-10-16T11:46:07;21.50;99.90
2729;DHT22;1372;47.956;7.830;2022-10-16T11:48:45;21.50;99.90
2729;DHT22;1372;47.956;7.830;2022-10-16T11:51:22;21.60;99.90
2729;DHT22;1372;47.956;7.830;2022-10-16T11:53:57;21.50;99.90
2729;DHT22;1372;47.956;7.830;2022-10-16T11:56:31;21.60;99.90
2729;DHT22;1372;47.956;7.830;2022-10-16T11:59:13;21.50;99.90
2729;DHT22;1372;47.956;7.830;2022-10-16T12:01:48;21.50;99.90
2729;DHT22;1372;47.956;7.830;2022-10-16T12:04:25;21.50;99.90
2729;DHT22;1372;47.956;7.830;2022-10-16T12:07:04;21.60;99.90
2729;DHT22;1372;47.956;7.830;2022-10-16T12:09:36;21.70;99.90
2729;DHT22;1372;47.956;7.830;2022-10-16T12:12:25;21.70;99.90
2729;DHT22;1372;47.956;7.830;2022-10-16T12:15:21;21.80;99.90
2729;DHT22;1372;47.956;7.830;2022-10-16T12:18:21;21.90;99.90
2729;DHT22;1372;47.956;7.830;2022-10-16T12:20:55;21.80;99.90
2729;DHT22;1372;47.956;7.830;2022-10-16T12:23:27;21.90;99.90
2729;DHT22;1372;47.956;7.830;2022-10-16T12:25:58;22.00;99.90
2729;DHT22;1372;47.956;7.830;2022-10-16T12:28:30;22.00;99.90
2729;DHT22;1372;47.956;7.830;2022-10-16T12:31:01;22.00;99.90
2729;DHT22;1372;47.956;7.830;2022-10-16T12:33:33;21.90;99.90
2729;DHT22;1372;47.956;7.830;2022-10-16T12:36:05;21.90;99.90
2729;DHT22;1372;47.956;7.830;2022-10-16T12:38:46;21.90;99.90
2729;DHT22;1372;47.956;7.830;2022-10-16T12:41:25;21.90;99.90
2729;DHT22;1372;47.956;7.830;2022-10-16T12:43:58;21.90;99.90
2729;DHT22;1372;47.956;7.830;2022-10-16T12:46:37;21.90;99.90
2729;DHT22;1372;47.956;7.830;2022-10-16T12:49:21;21.80;99.90
2729;DHT22;1372;47.956;7.830;2022-10-16T12:51:52;21.80;99.90
2729;DHT22;1372;47.956;7.830;2022-10-16T12:54:28;21.80;99.90
2729;DHT22;1372;47.956;7.830;2022-10-16T12:57:24;21.70;99.90
2729;DHT22;1372;47.956;7.830;2022-10-16T13:00:07;21.70;99.90
2729;DHT22;1372;47.956;7.830;2022-10-16T13:06:17;21.60;99.90
2729;DHT22;1372;47.956;7.830;2022-10-16T13:12:18;21.60;99.90
2729;DHT22;1372;47.956;7.830;2022-10-16T13:15:19;21.70;99.90
2729;DHT22;1372;47.956;7.830;2022-10-16T13:18:00;21.80;99.90
2729;DHT22;1372;47.956;7.830;2022-10-16T13:20:46;21.90;99.90
2729;DHT22;1372;47.956;7.830;2022-10-16T13:23:33;22.00;99.90
2729;DHT22;1372;47.956;7.830;2022-10-16T13:26:15;22.00;99.90
2729;DHT22;1372;47.956;7.830;2022-10-16T13:28:48;22.00;99.90
2729;DHT22;1372;47.956;7.830;2022-10-16T13:31:23;22.00;99.90
2729;DHT22;1372;47.956;7.830;2022-10-16T13:33:54;21.90;99.90
2729;DHT22;1372;47.956;7.830;2022-10-16T13:36:27;22.00;99.90
2729;DHT22;1372;47.956;7.830;2022-10-16T13:39:01;21.90;99.90
2729;DHT22;1372;47.956;7.830;2022-10-16T13:41:41;21.90;99.90
2729;DHT22;1372;47.956;7.830;2022-10-16T13:44:17;21.90;99.90
2729;DHT22;1372;47.956;7.830;2022-10-16T13:46:58;21.90;99.90
2729;DHT22;1372;47.956;7.830;2022-10-16T13:49:27;21.80;99.90
2729;DHT22;1372;47.956;7.830;2022-10-16T13:51:57;21.80;99.90
2729;DHT22;1372;47.956;7.830;2022-10-16T13:54:31;21.80;99.90
2729;DHT22;1372;47.956;7.830;2022-10-16T13:57:05;21.90;99.90
2729;DHT22;1372;47.956;7.830;2022-10-16T13:59:54;22.00;99.90
2729;DHT22;1372;47.956;7.830;2022-10-16T14:02:31;22.10;99.90
2729;DHT22;1372;47.956;7.830;2022-10-16T14:05:03;22.20;99.90
2729;DHT22;1372;47.956;7.830;2022-10-16T14:07:35;22.40;99.90
2729;DHT22;1372;47.956;7.830;2022-10-16T14:10:06;22.30;99.90
2729;DHT22;1372;47.956;7.830;2022-10-16T14:12:55;22.40;99.90
2729;DHT22;1372;47.956;7.830;2022-10-16T14:15:29;22.40;99.90
2729;DHT22;1372;47.956;7.830;2022-10-16T14:18:03;22.30;99.90
2729;DHT22;1372;47.956;7.830;2022-10-16T14:20:33;22.30;99.90
2729;DHT22;1372;47.956;7.830;2022-10-16T14:23:16;22.40;99.90
2729;DHT22;1372;47.956;7.830;2022-10-16T14:25:48;22.50;99.90
2729;DHT22;1372;47.956;7.830;2022-10-16T14:28:21;22.40;99.90
2729;DHT22;1372;47.956;7.830;2022-10-16T14:30:53;22.50;99.90
2729;DHT22;1372;47.956;7.830;2022-10-16T14:33:31;22.60;99.90
2729;DHT22;1372;47.956;7.830;2022-10-16T14:36:05;22.50;99.90
2729;DHT22;1372;47.956;7.830;2022-10-16T14:38:40;22.60;99.90
2729;DHT22;1372;47.956;7.830;2022-10-16T14:41:11;22.60;99.90
2729;DHT22;1372;47.956;7.830;2022-10-16T14:43:42;22.60;99.90
2729;DHT22;1372;47.956;7.830;2022-10-16T14:46:18;22.60;99.90
2729;DHT22;1372;47.956;7.830;2022-10-16T14:48:51;22.60;99.90
2729;DHT22;1372;47.956;7.830;2022-10-16T14:51:24;22.60;99.90
2729;DHT22;1372;47.956;7.830;2022-10-16T14:53:52;22.50;99.90
2729;DHT22;1372;47.956;7.830;2022-10-16T14:56:30;22.60;99.90
2729;DHT22;1372;47.956;7.830;2022-10-16T14:59:03;22.60;99.90
2729;DHT22;1372;47.956;7.830;2022-10-16T15:01:31;22.50;99.90
2729;DHT22;1372;47.956;7.830;2022-10-16T15:04:01;22.40;99.90
2729;DHT22;1372;47.956;7.830;2022-10-16T15:06:32;22.30;99.90
2729;DHT22;1372;47.956;7.830;2022-10-16T15:09:01;22.20;99.90
2729;DHT22;1372;47.956;7.830;2022-10-16T15:11:31;22.10;99.90
2729;DHT22;1372;47.956;7.830;2022-10-16T15:14:01;22.10;99.90
2729;DHT22;1372;47.956;7.830;2022-10-16T15:16:31;22.00;99.90
2729;DHT22;1372;47.956;7.830;2022-10-16T15:19:01;22.00;99.90
2729;DHT22;1372;47.956;7.830;2022-10-16T15:21:32;22.00;99.90
2729;DHT22;1372;47.956;7.830;2022-10-16T15:24:01;21.80;99.90
2729;DHT22;1372;47.956;7.830;2022-10-16T15:26:30;21.80;99.90
2729;DHT22;1372;47.956;7.830;2022-10-16T15:28:58;21.70;99.90
2729;DHT22;1372;47.956;7.830;2022-10-16T15:31:27;21.60;99.90
2729;DHT22;1372;47.956;7.830;2022-10-16T15:33:55;21.50;99.90
2729;DHT22;1372;47.956;7.830;2022-10-16T15:36:34;21.40;99.90
2729;DHT22;1372;47.956;7.830;2022-10-16T15:39:06;21.30;99.90
2729;DHT22;1372;47.956;7.830;2022-10-16T15:41:40;21.10;99.90
2729;DHT22;1372;47.956;7.830;2022-10-16T15:44:09;21.00;99.90
2729;DHT22;1372;47.956;7.830;2022-10-16T15:46:40;20.80;99.90
2729;DHT22;1372;47.956;7.830;2022-10-16T15:49:09;20.60;99.90
2729;DHT22;1372;47.956;7.830;2022-10-16T15:51:41;20.50;99.90
2729;DHT22;1372;47.956;7.830;2022-10-16T15:54:10;20.40;99.90
2729;DHT22;1372;47.956;7.830;2022-10-16T15:56:38;20.40;99.90
2729;DHT22;1372;47.956;7.830;2022-10-16T15:59:07;20.20;99.90
2729;DHT22;1372;47.956;7.830;2022-10-16T16:01:36;20.00;99.90
2729;DHT22;1372;47.956;7.830;2022-10-16T16:04:05;19.90;99.90
2729;DHT22;1372;47.956;7.830;2022-10-16T16:06:42;19.80;99.90
2729;DHT22;1372;47.956;7.830;2022-10-16T16:09:13;19.70;99.90
2729;DHT22;1372;47.956;7.830;2022-10-16T16:11:45;19.60;99.90
2729;DHT22;1372;47.956;7.830;2022-10-16T16:14:17;19.60;99.90
2729;DHT22;1372;47.956;7.830;2022-10-16T16:16:45;19.50;99.90
2729;DHT22;1372;47.956;7.830;2022-10-16T16:19:14;19.30;99.90
2729;DHT22;1372;47.956;7.830;2022-10-16T16:21:46;19.20;99.90
2729;DHT22;1372;47.956;7.830;2022-10-16T16:24:15;19.10;99.90
2729;DHT22;1372;47.956;7.830;2022-10-16T16:26:44;18.90;99.90
2729;DHT22;1372;47.956;7.830;2022-10-16T16:29:14;18.80;99.90
2729;DHT22;1372;47.956;7.830;2022-10-16T16:31:43;18.70;99.90
2729;DHT22;1372;47.956;7.830;2022-10-16T16:34:14;18.60;99.90
2729;DHT22;1372;47.956;7.830;2022-10-16T16:36:42;18.40;99.90
2729;DHT22;1372;47.956;7.830;2022-10-16T16:39:12;18.30;99.90
2729;DHT22;1372;47.956;7.830;2022-10-16T16:41:41;18.20;99.90
2729;DHT22;1372;47.956;7.830;2022-10-16T16:44:11;18.00;99.90
2729;DHT22;1372;47.956;7.830;2022-10-16T16:46:41;17.90;99.90
2729;DHT22;1372;47.956;7.830;2022-10-16T16:49:14;17.90;99.90
2729;DHT22;1372;47.956;7.830;2022-10-16T16:51:43;17.80;99.90
2729;DHT22;1372;47.956;7.830;2022-10-16T16:54:12;17.60;99.90